Time;durP1;ratioP1;P1;durP2;ratioP2;P2;SDS_P1;SDS_P2;PMS_P1;PMS_P2;Temp;Humidity;BMP_temperature;BMP_pressure;BME280_temperature;BME280_humidity;BME280_pressure;Samples;Min_cycle;Max_cycle;Signal;HPM_P1;HPM_P2
2024/01/12 00:00:49;;;;;;;;;25.00;23.75;;;;;6.40;98.12;102708.91;2096163;28;46503;-74
2024/01/12 00:01:51;;;;;;;;;20.75;20.75;;;;;6.40;98.76;102703.66;2095917;28;46721;-73
2024/01/12 00:02:51;;;;;;;;;21.00;20.40;;;;;6.39;98.98;102707.13;2093064;28;46471;-74
2024/01/12 00:03:52;;;;;;;;;19.75;19.75;;;;;6.41;98.83;102715.09;2095728;28;46771;-74
2024/01/12 00:04:52;;;;;;;;;22.50;19.50;;;;;6.41;99.21;102712.44;2096069;28;46490;-74
2024/01/12 00:05:52;;;;;;;;;20.50;20.50;;;;;6.40;98.99;102702.75;2096037;28;46578;-74
2024/01/12 00:06:53;;;;;;;;;20.75;19.50;;;;;6.43;98.99;102710.75;2095144;28;47940;-73
2024/01/12 00:07:53;;;;;;;;;21.00;19.50;;;;;6.43;99.52;102711.63;2091075;28;46050;-72
2024/01/12 00:08:53;;;;;;;;;21.50;20.25;;;;;6.44;99.87;102710.78;2093370;28;46294;-73
2024/01/12 00:09:54;;;;;;;;;18.75;17.50;;;;;6.45;100.00;102709.03;2097692;28;46608;-72
2024/01/12 00:10:54;;;;;;;;;18.00;18.00;;;;;6.46;100.00;102702.91;2097484;28;45979;-73
2024/01/12 00:11:55;;;;;;;;;19.25;19.25;;;;;6.50;100.00;102710.06;2096901;28;45834;-74
2024/01/12 00:12:55;;;;;;;;;23.00;21.50;;;;;6.49;100.00;102709.19;2097024;28;46217;-73
2024/01/12 00:13:55;;;;;;;;;21.75;19.50;;;;;6.51;100.00;102716.25;2097764;28;46838;-74
2024/01/12 00:14:56;;;;;;;;;24.50;22.25;;;;;6.52;100.00;102721.56;2097724;28;45809;-73
2024/01/12 00:15:56;;;;;;;;;17.75;17.75;;;;;6.53;100.00;102717.16;2097778;28;45820;-72
2024/01/12 00:16:56;;;;;;;;;19.50;19.50;;;;;6.53;100.00;102712.78;2097662;28;46212;-73
2024/01/12 00:17:57;;;;;;;;;20.50;20.50;;;;;6.55;100.00;102712.81;2097121;28;46650;-73
2024/01/12 00:18:57;;;;;;;;;22.25;20.25;;;;;6.54;100.00;102708.41;2096010;28;45230;-73
2024/01/12 00:19:58;;;;;;;;;24.00;21.50;;;;;6.56;100.00;102718.13;2096951;28;46228;-73
2024/01/12 00:20:58;;;;;;;;;22.25;19.75;;;;;6.54;100.00;102711.03;2097365;28;46525;-73
2024/01/12 00:21:58;;;;;;;;;21.25;18.00;;;;;6.55;100.00;102715.47;2097517;28;45851;-73
2024/01/12 00:22:59;;;;;;;;;18.25;17.50;;;;;6.56;100.00;102723.41;2097740;28;45232;-72
2024/01/12 00:23:59;;;;;;;;;18.50;18.00;;;;;6.59;100.00;102727.88;2097760;28;46102;-75
2024/01/12 00:25:00;;;;;;;;;21.00;19.50;;;;;6.58;100.00;102721.69;2097187;28;46874;-74
2024/01/12 00:26:00;;;;;;;;;17.25;17.25;;;;;6.60;100.00;102722.63;2097570;28;45880;-74
2024/01/12 00:27:00;;;;;;;;;20.50;18.50;;;;;6.63;100.00;102730.66;2096482;28;46625;-75
2024/01/12 00:28:01;;;;;;;;;17.25;17.25;;;;;6.64;100.00;102724.53;2097827;28;45475;-76
2024/01/12 00:29:01;;;;;;;;;16.00;16.00;;;;;6.64;100.00;102719.25;2097408;28;46691;-74
2024/01/12 00:30:01;;;;;;;;;21.25;21.25;;;;;6.64;100.00;102727.16;2097324;28;46231;-74
2024/01/12 00:31:02;;;;;;;;;19.00;17.75;;;;;6.66;100.00;102725.44;2097340;28;46473;-74
2024/01/12 00:32:05;;;;;;;;;19.00;18.50;;;;;6.65;100.00;102720.13;2097741;28;45431;-75
2024/01/12 00:33:05;;;;;;;;;19.00;19.00;;;;;6.68;100.00;102720.19;2097397;28;46028;-74
2024/01/12 00:34:06;;;;;;;;;23.50;21.50;;;;;6.68;100.00;102718.47;2096961;28;46424;-73
2024/01/12 00:35:06;;;;;;;;;23.75;21.25;;;;;6.72;100.00;102716.78;2096653;28;46951;-73
2024/01/12 00:36:07;;;;;;;;;18.25;18.25;;;;;6.73;100.00;102718.56;2096974;28;46700;-73
2024/01/12 00:37:07;;;;;;;;;21.25;21.25;;;;;6.72;100.00;102715.03;2095488;28;45888;-72
2024/01/12 00:38:07;;;;;;;;;21.50;21.50;;;;;6.74;100.00;102715.09;2097598;28;45759;-72
2024/01/12 00:39:08;;;;;;;;;19.25;19.00;;;;;6.74;100.00;102725.66;2097698;28;46099;-73
2024/01/12 00:40:08;;;;;;;;;23.50;22.25;;;;;6.76;100.00;102724.84;2093385;28;45981;-72
2024/01/12 00:41:09;;;;;;;;;20.75;19.50;;;;;6.75;100.00;102717.78;2098081;28;45690;-72
2024/01/12 00:42:09;;;;;;;;;18.50;13.50;;;;;6.77;100.00;102717.81;2095143;28;46190;-73
2024/01/12 00:43:09;;;;;;;;;17.00;17.00;;;;;6.76;100.00;102722.19;2097471;28;45465;-72
2024/01/12 00:44:10;;;;;;;;;14.25;14.25;;;;;6.76;100.00;102711.66;2097209;28;46573;-72
2024/01/12 00:45:10;;;;;;;;;21.50;18.00;;;;;6.76;100.00;102730.13;2091898;28;45678;-73
2024/01/12 00:46:11;;;;;;;;;21.75;21.75;;;;;6.76;100.00;102718.66;2093834;28;46921;-72
2024/01/12 00:47:11;;;;;;;;;17.75;17.75;;;;;6.72;100.00;102714.16;2097530;28;45521;-72
2024/01/12 00:48:11;;;;;;;;;22.00;22.00;;;;;6.76;100.00;102716.03;2096892;28;46474;-72
2024/01/12 00:49:12;;;;;;;;;22.00;19.25;;;;;6.68;100.00;102715.81;2097586;28;45648;-73
2024/01/12 00:50:12;;;;;;;;;25.00;21.25;;;;;6.67;100.00;102727.22;2089764;28;46824;-73
2024/01/12 00:51:13;;;;;;;;;22.00;21.25;;;;;6.68;100.00;102722.84;2094518;28;45405;-73
2024/01/12 00:52:13;;;;;;;;;18.75;16.00;;;;;6.73;100.00;102714.22;2096419;28;45706;-73
2024/01/12 00:53:14;;;;;;;;;20.50;20.25;;;;;6.75;100.00;102716.88;2095710;28;46474;-73
2024/01/12 00:54:15;;;;;;;;;22.25;21.25;;;;;6.76;100.00;102714.28;2097845;28;46477;-73
2024/01/12 00:55:15;;;;;;;;;15.20;14.20;;;;;6.78;100.00;102716.97;2097155;28;45031;-72
2024/01/12 00:56:16;;;;;;;;;21.50;18.00;;;;;6.79;100.00;102711.72;2096891;28;46057;-72
2024/01/12 00:57:17;;;;;;;;;19.20;19.00;;;;;6.78;100.00;102711.69;2097553;28;46058;-73
2024/01/12 00:58:17;;;;;;;;;24.50;20.25;;;;;6.79;100.00;102703.81;2097405;28;47335;-74
2024/01/12 00:59:19;;;;;;;;;22.75;20.75;;;;;6.81;100.00;102709.13;2097223;28;46521;-72
2024/01/12 01:00:19;;;;;;;;;19.80;19.40;;;;;6.81;100.00;102705.59;2097238;28;45753;-73
2024/01/12 01:01:20;;;;;;;;;21.75;19.00;;;;;6.79;100.00;102706.44;2097368;28;45157;-72
2024/01/12 01:02:21;;;;;;;;;18.40;17.80;;;;;6.81;100.00;102705.59;2096972;28;45854;-73
2024/01/12 01:03:21;;;;;;;;;25.00;22.25;;;;;6.81;100.00;102698.56;2097584;28;45082;-75
2024/01/12 01:04:21;;;;;;;;;16.75;14.00;;;;;6.80;100.00;102699.41;2097426;28;45812;-74
2024/01/12 01:05:22;;;;;;;;;20.25;20.25;;;;;6.81;100.00;102695.91;2095760;28;45837;-74
2024/01/12 01:06:22;;;;;;;;;23.00;21.50;;;;;6.82;100.00;102697.69;2097044;28;46161;-74
2024/01/12 01:07:22;;;;;;;;;27.50;22.75;;;;;6.81;100.00;102698.56;2095135;28;46250;-74
2024/01/12 01:08:23;;;;;;;;;23.00;18.00;;;;;6.81;100.00;102700.31;2095862;28;46180;-75
2024/01/12 01:09:23;;;;;;;;;25.75;23.25;;;;;6.79;100.00;102701.16;2097457;28;45270;-75
2024/01/12 01:10:23;;;;;;;;;18.75;18.75;;;;;6.81;100.00;102700.31;2095911;28;45531;-75
2024/01/12 01:11:24;;;;;;;;;21.75;20.00;;;;;6.81;100.00;102697.66;2096752;28;45843;-75
2024/01/12 01:12:25;;;;;;;;;22.25;22.25;;;;;6.80;100.00;102694.13;2097115;28;45775;-75
2024/01/12 01:13:25;;;;;;;;;23.25;21.00;;;;;6.83;100.00;102695.94;2096733;28;46452;-74
2024/01/12 01:14:26;;;;;;;;;16.00;15.50;;;;;6.82;100.00;102694.16;2097545;28;46237;-75
2024/01/12 01:15:26;;;;;;;;;26.20;24.00;;;;;6.82;100.00;102700.34;2096414;28;46271;-75
2024/01/12 01:16:27;;;;;;;;;26.50;24.50;;;;;6.81;100.00;102700.31;2096630;28;46266;-75
2024/01/12 01:17:27;;;;;;;;;24.50;23.25;;;;;6.81;100.00;102698.56;2098010;28;46031;-75
2024/01/12 01:18:30;;;;;;;;;23.00;23.00;;;;;6.82;100.00;102700.34;2097759;28;45149;-76
2024/01/12 01:19:30;;;;;;;;;21.00;18.60;;;;;6.81;100.00;102698.56;2097431;28;45658;-74
2024/01/12 01:20:33;;;;;;;;;22.00;19.50;;;;;6.81;100.00;102700.31;2097012;28;46133;-76
2024/01/12 01:21:33;;;;;;;;;15.00;15.00;;;;;6.83;100.00;102698.59;2096626;28;46056;-77
2024/01/12 01:22:34;;;;;;;;;22.00;19.75;;;;;6.82;100.00;102692.41;2097249;28;46631;-75
2024/01/12 01:23:34;;;;;;;;;22.60;21.40;;;;;6.83;100.00;102690.66;2097042;28;46692;-74
2024/01/12 01:24:35;;;;;;;;;24.00;23.00;;;;;6.83;100.00;102688.94;2097078;28;46111;-74
2024/01/12 01:25:37;;;;;;;;;25.50;23.75;;;;;6.83;100.00;102685.41;2095697;28;46253;-74
2024/01/12 01:26:37;;;;;;;;;23.40;23.20;;;;;6.83;100.00;102688.03;2094484;28;46519;-73
2024/01/12 01:27:37;;;;;;;;;25.00;22.75;;;;;6.83;100.00;102685.41;2093429;28;46076;-75
2024/01/12 01:28:38;;;;;;;;;22.75;22.25;;;;;6.83;100.00;102683.66;2097036;28;45792;-74
2024/01/12 01:29:38;;;;;;;;;20.50;20.50;;;;;6.83;100.00;102682.75;2096990;28;45586;-75
2024/01/12 01:30:38;;;;;;;;;19.00;18.50;;;;;6.84;100.00;102687.19;2097366;28;45242;-75
2024/01/12 01:31:39;;;;;;;;;27.25;23.75;;;;;6.82;100.00;102687.16;2096928;28;45659;-76
2024/01/12 01:32:39;;;;;;;;;20.50;20.50;;;;;6.76;100.00;102681.72;2095433;28;46340;-75
2024/01/12 01:33:39;;;;;;;;;21.50;19.00;;;;;6.73;100.00;102687.81;2096917;28;45512;-75
2024/01/12 01:34:40;;;;;;;;;22.25;20.00;;;;;6.81;100.00;102687.09;2097604;28;46214;-74
2024/01/12 01:35:40;;;;;;;;;20.25;20.25;;;;;6.78;100.00;102683.53;2097784;28;45971;-74
2024/01/12 01:36:41;;;;;;;;;26.50;24.50;;;;;6.76;100.00;102679.09;2096987;28;45613;-75
2024/01/12 01:37:43;;;;;;;;;22.50;21.75;;;;;6.76;100.00;102682.63;2095861;28;47341;-74
2024/01/12 01:38:43;;;;;;;;;24.40;23.40;;;;;6.84;100.00;102684.53;2097363;28;46283;-74
2024/01/12 01:39:43;;;;;;;;;17.50;16.50;;;;;6.85;100.00;102679.28;2096583;28;45122;-75
2024/01/12 01:40:44;;;;;;;;;22.75;21.00;;;;;6.87;100.00;102685.53;2097226;28;45872;-75
2024/01/12 01:41:44;;;;;;;;;23.75;22.25;;;;;6.90;100.00;102682.06;2097407;28;46241;-74
2024/01/12 01:42:48;;;;;;;;;24.25;23.50;;;;;6.83;100.00;102674.84;2097278;28;46539;-74
2024/01/12 01:43:48;;;;;;;;;21.60;21.60;;;;;6.82;100.00;102678.34;2097050;28;47009;-74
2024/01/12 01:44:48;;;;;;;;;20.00;20.00;;;;;6.82;100.00;102675.69;2095029;28;45574;-74
2024/01/12 01:45:49;;;;;;;;;22.75;21.25;;;;;6.88;100.00;102678.50;2096979;28;45042;-74
2024/01/12 01:46:49;;;;;;;;;23.25;21.50;;;;;6.82;100.00;102673.06;2097003;28;46405;-75
2024/01/12 01:47:50;;;;;;;;;24.25;21.75;;;;;6.86;100.00;102681.09;2096512;28;45636;-74
2024/01/12 01:48:51;;;;;;;;;23.00;22.75;;;;;6.86;100.00;102675.84;2097015;28;46256;-75
2024/01/12 01:49:51;;;;;;;;;20.25;20.25;;;;;6.82;100.00;102680.97;2097085;28;45398;-72
2024/01/12 01:50:53;;;;;;;;;23.00;23.00;;;;;6.81;100.00;102680.09;2096480;28;46406;-73
2024/01/12 01:51:53;;;;;;;;;21.20;20.60;;;;;6.88;100.00;102684.69;2097214;28;45975;-70
2024/01/12 01:52:56;;;;;;;;;24.75;24.75;;;;;6.86;100.00;102678.47;2097108;28;44998;-73
2024/01/12 01:53:57;;;;;;;;;24.00;22.60;;;;;6.84;100.00;102681.91;2096585;28;46549;-73
2024/01/12 01:54:58;;;;;;;;;27.50;24.50;;;;;6.81;100.00;102680.09;2097220;28;46254;-73
2024/01/12 01:56:01;;;;;;;;;20.60;19.40;;;;;6.85;100.00;102683.69;2096850;28;46288;-73
2024/01/12 01:57:02;;;;;;;;;27.80;23.60;;;;;6.80;100.00;102678.31;2096759;28;47000;-75
2024/01/12 01:58:03;;;;;;;;;28.00;26.25;;;;;6.85;100.00;102681.94;2097246;28;45349;-74
2024/01/12 01:59:04;;;;;;;;;24.00;23.40;;;;;6.91;100.00;102678.56;2097013;28;46263;-74
2024/01/12 02:00:05;;;;;;;;;23.50;22.25;;;;;6.92;100.00;102681.25;2096449;28;46761;-73
2024/01/12 02:01:06;;;;;;;;;24.80;21.20;;;;;6.93;100.00;102668.94;2095770;28;46923;-74
2024/01/12 02:02:08;;;;;;;;;20.80;19.60;;;;;6.92;100.00;102673.34;2095001;28;45586;-73
2024/01/12 02:03:08;;;;;;;;;28.00;24.00;;;;;6.92;100.00;102675.97;2097186;28;46460;-74
2024/01/12 02:04:10;;;;;;;;;27.50;23.25;;;;;6.92;100.00;102675.06;2096650;28;45530;-76
2024/01/12 02:05:11;;;;;;;;;21.40;20.40;;;;;6.91;100.00;102670.66;2096412;28;45657;-74
2024/01/12 02:06:12;;;;;;;;;31.25;27.00;;;;;6.92;100.00;102672.44;2096620;28;45771;-73
2024/01/12 02:07:12;;;;;;;;;29.00;26.75;;;;;6.90;100.00;102674.16;2096123;28;47089;-73
2024/01/12 02:08:13;;;;;;;;;22.00;20.50;;;;;6.91;100.00;102681.22;2096648;28;45911;-73
2024/01/12 02:09:14;;;;;;;;;23.20;20.80;;;;;6.92;100.00;102672.44;2096811;28;45677;-73
2024/01/12 02:10:14;;;;;;;;;29.75;27.00;;;;;6.91;100.00;102670.66;2097529;28;46279;-74
2024/01/12 02:11:14;;;;;;;;;23.25;23.00;;;;;6.92;100.00;102667.16;2096960;28;45771;-73
2024/01/12 02:12:15;;;;;;;;;22.75;21.75;;;;;6.93;100.00;102679.50;2097609;28;45041;-74
2024/01/12 02:13:15;;;;;;;;;24.00;24.00;;;;;6.94;100.00;102678.66;2096977;28;45836;-73
2024/01/12 02:14:16;;;;;;;;;28.00;24.75;;;;;6.94;100.00;102662.81;2097834;28;45600;-74
2024/01/12 02:15:18;;;;;;;;;30.00;26.00;;;;;6.95;100.00;102667.22;2097139;28;45557;-73
2024/01/12 02:16:18;;;;;;;;;26.80;23.20;;;;;6.97;100.00;102665.50;2095600;28;45745;-74
2024/01/12 02:17:18;;;;;;;;;28.00;28.00;;;;;6.99;100.00;102671.75;2095583;28;45570;-74
2024/01/12 02:18:19;;;;;;;;;24.75;23.75;;;;;6.99;100.00;102669.09;2093617;28;46442;-74
2024/01/12 02:19:19;;;;;;;;;22.25;19.00;;;;;6.99;100.00;102666.47;2095577;28;46226;-74
2024/01/12 02:20:19;;;;;;;;;22.00;20.25;;;;;6.99;100.00;102656.81;2095679;28;46509;-75
2024/01/12 02:21:20;;;;;;;;;24.50;23.50;;;;;7.01;100.00;102662.13;2095675;28;45781;-73
2024/01/12 02:22:21;;;;;;;;;19.75;14.75;;;;;7.00;100.00;102655.94;2096774;28;45925;-73
2024/01/12 02:23:21;;;;;;;;;23.40;22.00;;;;;7.00;100.00;102658.59;2078612;28;45828;-75
2024/01/12 02:24:21;;;;;;;;;23.50;20.00;;;;;7.00;100.00;102658.59;2079136;28;47927;-73
2024/01/12 02:25:22;;;;;;;;;28.50;25.00;;;;;7.00;100.00;102652.41;2078837;28;45911;-74
2024/01/12 02:26:23;;;;;;;;;23.00;23.00;;;;;6.99;100.00;102654.16;2079298;28;45984;-73
2024/01/12 02:27:23;;;;;;;;;19.50;18.25;;;;;7.00;100.00;102652.41;2079381;28;45238;-72
2024/01/12 02:28:23;;;;;;;;;26.00;24.25;;;;;6.99;100.00;102653.28;2078839;28;46570;-74
2024/01/12 02:29:24;;;;;;;;;21.50;21.50;;;;;7.00;100.00;102652.41;2070672;28;46465;-72
2024/01/12 02:30:24;;;;;;;;;24.50;21.75;;;;;6.99;100.00;102651.53;2070705;28;46557;-73
2024/01/12 02:31:26;;;;;;;;;21.25;20.25;;;;;7.00;100.00;102652.41;2078878;28;46331;-73
2024/01/12 02:32:26;;;;;;;;;24.20;19.80;;;;;7.00;100.00;102660.34;2079614;28;46052;-74
2024/01/12 02:33:26;;;;;;;;;29.50;23.00;;;;;7.01;100.00;102655.09;2079162;28;46261;-73
2024/01/12 02:34:27;;;;;;;;;23.75;21.75;;;;;7.01;100.00;102654.19;2077921;28;45753;-73
2024/01/12 02:35:27;;;;;;;;;23.00;23.00;;;;;7.02;100.00;102655.97;2059994;28;45525;-74
2024/01/12 02:36:27;;;;;;;;;20.25;20.25;;;;;7.04;100.00;102652.50;2059327;28;46762;-74
2024/01/12 02:37:28;;;;;;;;;25.75;22.50;;;;;7.05;100.00;102658.69;2078722;28;46752;-73
2024/01/12 02:38:28;;;;;;;;;22.50;21.50;;;;;7.06;100.00;102658.72;2078953;28;45513;-73
2024/01/12 02:39:29;;;;;;;;;18.00;18.00;;;;;7.06;100.00;102655.19;2079275;28;46297;-74
2024/01/12 02:40:29;;;;;;;;;21.25;20.75;;;;;7.07;100.00;102652.56;2078942;28;46665;-74
2024/01/12 02:41:29;;;;;;;;;19.50;18.00;;;;;7.08;100.00;102656.09;2079200;28;46063;-74
2024/01/12 02:42:29;;;;;;;;;20.25;20.25;;;;;7.08;100.00;102654.34;2076582;28;47059;-73
2024/01/12 02:43:30;;;;;;;;;23.00;20.50;;;;;7.09;100.00;102653.50;2079369;28;46099;-74
2024/01/12 02:44:31;;;;;;;;;23.25;21.50;;;;;7.12;100.00;102651.81;2078762;28;45895;-75
2024/01/12 02:45:31;;;;;;;;;26.50;23.75;;;;;7.12;100.00;102655.34;2078717;28;45823;-74
2024/01/12 02:46:31;;;;;;;;;20.50;20.50;;;;;7.12;100.00;102651.81;2079329;28;45600;-75
2024/01/12 02:47:32;;;;;;;;;23.25;23.25;;;;;7.14;100.00;102658.00;2078853;28;46422;-75
2024/01/12 02:48:32;;;;;;;;;21.25;21.00;;;;;7.15;100.00;102662.44;2079093;28;45217;-74
2024/01/12 02:49:32;;;;;;;;;25.25;23.00;;;;;7.15;100.00;102658.03;2085912;28;45741;-74
2024/01/12 02:50:33;;;;;;;;;21.25;20.50;;;;;7.15;100.00;102663.31;2086890;28;45602;-74
2024/01/12 02:51:33;;;;;;;;;19.75;19.75;;;;;7.17;100.00;102658.06;2086193;28;46450;-73
2024/01/12 02:52:37;;;;;;;;;26.25;22.75;;;;;7.18;100.00;102662.50;2087033;28;45427;-75
2024/01/12 02:53:37;;;;;;;;;19.00;18.00;;;;;7.19;100.00;102659.00;2087641;28;45692;-74
2024/01/12 02:54:37;;;;;;;;;27.00;24.75;;;;;7.19;100.00;102659.00;2087597;28;46409;-75
2024/01/12 02:55:38;;;;;;;;;25.25;23.75;;;;;7.20;100.00;102663.44;2094958;28;46333;-74
2024/01/12 02:56:38;;;;;;;;;19.50;18.25;;;;;7.20;100.00;102648.47;2096131;28;45497;-74
2024/01/12 02:57:38;;;;;;;;;26.50;25.75;;;;;7.19;100.00;102653.72;2087352;28;47223;-74
2024/01/12 02:58:39;;;;;;;;;27.25;21.50;;;;;7.20;100.00;102659.03;2095481;28;47344;-73
2024/01/12 02:59:39;;;;;;;;;26.75;21.75;;;;;7.21;100.00;102658.19;2096568;28;46700;-74
2024/01/12 03:00:41;;;;;;;;;26.00;23.75;;;;;7.20;100.00;102655.50;2097021;28;46561;-75
2024/01/12 03:01:41;;;;;;;;;24.40;23.60;;;;;7.21;100.00;102660.81;2096452;28;46784;-73
2024/01/12 03:02:41;;;;;;;;;26.25;25.00;;;;;7.23;100.00;102658.19;2096641;28;44980;-73
2024/01/12 03:03:42;;;;;;;;;27.75;25.25;;;;;7.23;100.00;102650.28;2096516;28;48525;-74
2024/01/12 03:04:42;;;;;;;;;30.25;25.25;;;;;7.22;100.00;102657.31;2097037;28;45558;-74
2024/01/12 03:05:42;;;;;;;;;29.50;28.00;;;;;7.22;100.00;102659.94;2095679;28;46585;-74
2024/01/12 03:06:43;;;;;;;;;26.00;24.00;;;;;7.22;100.00;102649.38;2096727;28;45694;-73
2024/01/12 03:07:43;;;;;;;;;23.50;23.50;;;;;7.23;100.00;102656.44;2095250;28;45966;-73
2024/01/12 03:08:43;;;;;;;;;28.25;26.00;;;;;7.23;100.00;102659.09;2096291;28;45833;-73
2024/01/12 03:09:43;;;;;;;;;29.75;24.25;;;;;7.23;100.00;102659.09;2095794;28;45670;-73
2024/01/12 03:10:44;;;;;;;;;25.25;24.00;;;;;7.25;100.00;102653.88;2096662;28;45662;-74
2024/01/12 03:11:44;;;;;;;;;24.25;23.00;;;;;7.26;100.00;102656.56;2094440;28;45986;-72
2024/01/12 03:12:44;;;;;;;;;30.00;25.00;;;;;7.26;100.00;102664.47;2088253;28;46976;-73
2024/01/12 03:13:45;;;;;;;;;26.50;25.00;;;;;7.29;100.00;102655.72;2095385;28;46294;-74
2024/01/12 03:14:45;;;;;;;;;27.75;25.50;;;;;7.31;100.00;102651.38;2096365;28;45884;-73
2024/01/12 03:15:46;;;;;;;;;24.75;24.25;;;;;7.31;100.00;102654.00;2096386;28;46402;-73
2024/01/12 03:16:46;;;;;;;;;24.50;22.75;;;;;7.31;100.00;102654.91;2096138;28;46779;-74
2024/01/12 03:17:46;;;;;;;;;26.75;22.50;;;;;7.31;100.00;102644.31;2096598;28;46073;-74
2024/01/12 03:18:48;;;;;;;;;27.00;22.00;;;;;7.33;100.00;102652.28;2095444;28;45938;-73
2024/01/12 03:19:48;;;;;;;;;27.40;24.40;;;;;7.34;100.00;102648.78;2096250;28;46884;-74
2024/01/12 03:20:49;;;;;;;;;28.25;22.75;;;;;7.35;100.00;102653.22;2097259;28;45786;-74
2024/01/12 03:21:49;;;;;;;;;28.25;23.25;;;;;7.35;100.00;102642.63;2096374;28;45010;-74
2024/01/12 03:22:49;;;;;;;;;23.25;23.25;;;;;7.34;100.00;102649.66;2094584;28;46077;-74
2024/01/12 03:23:50;;;;;;;;;24.50;22.25;;;;;7.35;100.00;102647.91;2095318;28;46337;-73
2024/01/12 03:24:50;;;;;;;;;30.25;25.25;;;;;7.34;100.00;102643.50;2095024;28;46525;-74
2024/01/12 03:25:51;;;;;;;;;29.00;27.75;;;;;7.34;100.00;102652.31;2095309;28;46186;-73
2024/01/12 03:26:51;;;;;;;;;25.75;25.50;;;;;7.34;100.00;102647.03;2096177;28;46086;-74
2024/01/12 03:27:51;;;;;;;;;30.25;25.25;;;;;7.35;100.00;102648.81;2095999;28;46269;-72
2024/01/12 03:28:51;;;;;;;;;24.00;23.75;;;;;7.35;100.00;102643.53;2096364;28;46256;-72
2024/01/12 03:29:52;;;;;;;;;34.00;28.50;;;;;7.36;100.00;102647.06;2095853;28;46088;-73
2024/01/12 03:30:52;;;;;;;;;31.75;26.50;;;;;7.36;100.00;102645.31;2095737;28;48433;-72
2024/01/12 03:31:52;;;;;;;;;28.00;24.50;;;;;7.36;100.00;102653.22;2095904;28;45630;-73
2024/01/12 03:32:53;;;;;;;;;29.50;27.75;;;;;7.36;100.00;102641.78;2093287;28;46661;-73
2024/01/12 03:33:53;;;;;;;;;25.50;24.00;;;;;7.37;100.00;102654.16;2096627;28;45863;-73
2024/01/12 03:34:53;;;;;;;;;26.75;26.75;;;;;7.35;100.00;102654.09;2093484;28;46352;-74
2024/01/12 03:35:54;;;;;;;;;35.25;30.75;;;;;7.35;100.00;102653.22;2093351;28;46401;-73
2024/01/12 03:36:54;;;;;;;;;25.00;24.25;;;;;7.34;100.00;102654.06;2096219;28;46120;-73
2024/01/12 03:37:54;;;;;;;;;31.00;30.00;;;;;7.36;100.00;102647.06;2096611;28;45759;-73
2024/01/12 03:38:54;;;;;;;;;24.50;21.25;;;;;7.36;100.00;102654.97;2094766;28;45882;-73
2024/01/12 03:39:55;;;;;;;;;29.25;28.25;;;;;7.35;100.00;102648.81;2095999;28;45959;-73
2024/01/12 03:40:55;;;;;;;;;32.25;29.00;;;;;7.35;100.00;102646.16;2095928;28;46507;-74
2024/01/12 03:41:55;;;;;;;;;35.00;28.75;;;;;7.37;100.00;102646.22;2090470;28;44959;-73
2024/01/12 03:42:56;;;;;;;;;30.00;29.00;;;;;7.36;100.00;102647.94;2091763;28;45077;-73
2024/01/12 03:43:56;;;;;;;;;14.00;12.00;;;;;7.29;100.00;102648.69;2090696;28;47090;-73
2024/01/12 03:44:56;;;;;;;;;38.50;33.00;;;;;7.35;100.00;102646.16;2097676;28;45889;-74
2024/01/12 03:45:57;;;;;;;;;30.00;30.00;;;;;7.28;100.00;102638.09;2098043;28;45987;-73
2024/01/12 03:46:57;;;;;;;;;28.50;26.75;;;;;7.28;100.00;102643.38;2096348;28;46443;-73
2024/01/12 03:47:57;;;;;;;;;34.50;30.75;;;;;7.29;100.00;102645.16;2096315;28;47498;-73
2024/01/12 03:48:58;;;;;;;;;30.50;29.00;;;;;7.31;100.00;102635.50;2097957;28;44953;-74
2024/01/12 03:49:58;;;;;;;;;36.75;34.50;;;;;7.28;100.00;102636.34;2097966;28;45641;-73
2024/01/12 03:50:58;;;;;;;;;36.00;32.00;;;;;7.30;100.00;102639.03;2097638;28;46463;-74
2024/01/12 03:51:59;;;;;;;;;33.50;31.00;;;;;7.29;100.00;102627.56;2097152;28;46633;-72
2024/01/12 03:52:59;;;;;;;;;36.25;30.75;;;;;7.29;100.00;102627.56;2097093;28;45076;-73
2024/01/12 03:53:59;;;;;;;;;28.00;27.25;;;;;7.29;100.00;102635.50;2103040;28;46602;-74
2024/01/12 03:55:00;;;;;;;;;30.25;25.75;;;;;7.32;100.00;102635.53;2102705;28;45073;-74
2024/01/12 03:56:00;;;;;;;;;34.00;32.75;;;;;7.37;100.00;102636.56;2097612;28;46084;-72
2024/01/12 03:57:02;;;;;;;;;36.00;34.75;;;;;7.37;100.00;102638.31;2096454;28;46154;-73
2024/01/12 03:58:02;;;;;;;;;36.20;32.80;;;;;7.37;100.00;102630.38;2097796;28;45386;-73
2024/01/12 03:59:03;;;;;;;;;30.50;30.00;;;;;7.36;100.00;102632.09;2097465;28;46608;-73
2024/01/12 04:00:05;;;;;;;;;32.75;30.50;;;;;7.39;100.00;102631.31;2090518;28;46336;-73
2024/01/12 04:01:09;;;;;;;;;33.00;30.60;;;;;7.42;100.00;102635.75;2097692;28;46419;-73
2024/01/12 04:02:11;;;;;;;;;34.60;34.00;;;;;7.43;100.00;102630.50;2097792;28;45751;-72
2024/01/12 04:03:11;;;;;;;;;34.80;31.80;;;;;7.40;100.00;102624.28;2091021;28;45787;-72
2024/01/12 04:04:13;;;;;;;;;33.00;29.50;;;;;7.46;100.00;102625.28;2095140;28;46830;-71
2024/01/12 04:05:13;;;;;;;;;38.40;36.00;;;;;7.45;100.00;102626.13;2097481;28;46602;-72
2024/01/12 04:06:14;;;;;;;;;45.00;32.50;;;;;7.46;100.00;102627.94;2096567;28;46452;-72
2024/01/12 04:07:14;;;;;;;;;32.50;31.00;;;;;7.48;100.00;102631.47;2097584;28;45190;-73
2024/01/12 04:08:14;;;;;;;;;30.25;29.50;;;;;7.50;100.00;102629.78;2089700;28;45417;-73
2024/01/12 04:09:15;;;;;;;;;40.00;35.00;;;;;7.49;100.00;102627.97;2097229;28;48702;-73
2024/01/12 04:10:16;;;;;;;;;38.75;35.00;;;;;7.50;100.00;102624.50;2097742;28;45665;-73
2024/01/12 04:11:21;;;;;;;;;38.00;32.25;;;;;7.51;100.00;102634.22;2097827;28;45116;-72
2024/01/12 04:12:21;;;;;;;;;40.00;34.00;;;;;7.50;100.00;102632.44;2096232;28;46368;-73
2024/01/12 04:13:21;;;;;;;;;43.50;35.75;;;;;7.51;100.00;102625.41;2097669;28;46118;-74
2024/01/12 04:14:22;;;;;;;;;34.25;32.75;;;;;7.51;100.00;102631.56;2097501;28;45421;-73
2024/01/12 04:15:22;;;;;;;;;37.25;33.00;;;;;7.51;100.00;102626.28;2098464;28;45486;-74
2024/01/12 04:16:22;;;;;;;;;39.75;31.50;;;;;7.51;100.00;102623.66;2105637;28;46479;-72
2024/01/12 04:17:23;;;;;;;;;33.00;31.25;;;;;7.50;100.00;102629.78;2094928;28;45092;-74
2024/01/12 04:18:23;;;;;;;;;33.25;31.50;;;;;7.47;100.00;102621.78;2091993;28;46468;-75
2024/01/12 04:19:24;;;;;;;;;34.00;31.75;;;;;7.42;100.00;102626.09;2097588;28;45487;-74
2024/01/12 04:20:24;;;;;;;;;31.75;31.50;;;;;7.40;100.00;102622.53;2097078;28;45412;-74
2024/01/12 04:21:24;;;;;;;;;40.75;30.75;;;;;7.48;100.00;102627.94;2097318;28;45976;-74
2024/01/12 04:22:25;;;;;;;;;37.50;36.00;;;;;7.49;100.00;102620.06;2097617;28;47242;-73
2024/01/12 04:23:25;;;;;;;;;36.50;34.75;;;;;7.49;100.00;102627.09;2097444;28;46059;-73
2024/01/12 04:24:25;;;;;;;;;33.00;29.25;;;;;7.49;100.00;102625.34;2097560;28;46694;-73
2024/01/12 04:25:26;;;;;;;;;40.00;36.25;;;;;7.48;100.00;102628.84;2101582;28;45743;-73
2024/01/12 04:26:26;;;;;;;;;36.75;33.25;;;;;7.48;100.00;102625.31;2103780;27;45619;-74
2024/01/12 04:27:28;;;;;;;;;43.00;34.00;;;;;7.46;100.00;102624.38;2104731;28;45439;-73
2024/01/12 04:28:28;;;;;;;;;40.40;36.40;;;;;7.45;100.00;102623.50;2099992;27;48955;-73
2024/01/12 04:29:29;;;;;;;;;42.75;36.25;;;;;7.38;100.00;102621.59;2096908;28;44968;-73
2024/01/12 04:30:29;;;;;;;;;32.50;30.75;;;;;7.35;100.00;102624.16;2092003;28;46508;-72
2024/01/12 04:31:29;;;;;;;;;41.50;35.50;;;;;7.37;100.00;102625.09;2101829;28;45374;-73
2024/01/12 04:32:29;;;;;;;;;40.00;36.25;;;;;7.35;100.00;102625.03;2097830;28;46106;-73
2024/01/12 04:33:31;;;;;;;;;35.50;33.00;;;;;7.35;100.00;102627.69;2097349;28;47375;-72
2024/01/12 04:34:34;;;;;;;;;44.40;36.80;;;;;7.32;100.00;102630.25;2096850;28;46588;-74
2024/01/12 04:35:34;;;;;;;;;38.60;36.00;;;;;7.37;100.00;102623.34;2098380;28;46162;-74